Time;durP1;ratioP1;P1;durP2;ratioP2;P2;SDS_P1;SDS_P2;PMS_P1;PMS_P2;Temp;Humidity;BMP_temperature;BMP_pressure;BME280_temperature;BME280_humidity;BME280_pressure;Samples;Min_cycle;Max_cycle;Signal;HPM_P1;HPM_P2
2021/01/26 00:00:52;;;;;;;2.80;1.00;;;;;;;19.03;45.40;100989.28;5019638;28;20049;-72
2021/01/26 00:03:20;;;;;;;2.05;1.00;;;;;;;19.02;45.35;100974.44;5008943;28;20045;-72
2021/01/26 00:05:45;;;;;;;2.47;1.08;;;;;;;19.03;45.51;100970.94;5013710;28;20052;-72
2021/01/26 00:08:12;;;;;;;3.20;1.42;;;;;;;19.00;45.38;100970.97;5013689;28;20488;-72
2021/01/26 00:10:38;;;;;;;1.75;0.73;;;;;;;19.03;45.53;100982.31;5021897;28;20036;-72
2021/01/26 00:13:04;;;;;;;1.63;0.75;;;;;;;19.03;45.53;100982.31;5010966;28;20021;-72
2021/01/26 00:15:30;;;;;;;0.98;0.68;;;;;;;18.97;45.40;100982.31;5013958;28;20083;-72
2021/01/26 00:17:56;;;;;;;2.47;1.27;;;;;;;18.96;45.47;100991.06;5027406;28;20116;-72
2021/01/26 00:20:23;;;;;;;1.73;0.85;;;;;;;18.94;45.43;100986.72;5030751;28;20033;-72
2021/01/26 00:22:48;;;;;;;1.88;0.82;;;;;;;18.98;45.52;101004.16;5013590;28;20373;-72
2021/01/26 00:25:19;;;;;;;3.42;1.33;;;;;;;18.98;45.29;101006.78;5007188;28;20041;-72
2021/01/26 00:27:44;;;;;;;2.75;0.93;;;;;;;18.96;45.38;101004.16;5030577;28;20053;-72
2021/01/26 00:30:20;;;;;;;1.75;0.98;;;;;;;18.96;45.48;101003.28;5011304;28;20645;-72
2021/01/26 00:32:45;;;;;;;1.83;0.93;;;;;;;18.95;45.38;101004.19;5018074;28;20057;-72
2021/01/26 00:35:12;;;;;;;1.45;0.93;;;;;;;18.89;45.31;100985.00;5012032;28;20136;-72
2021/01/26 00:37:38;;;;;;;1.65;0.82;;;;;;;18.92;45.43;100992.84;5011850;28;20034;-72
2021/01/26 00:40:04;;;;;;;2.75;1.00;;;;;;;18.88;45.56;100991.09;5003251;28;20037;-72
2021/01/26 00:42:29;;;;;;;2.05;0.85;;;;;;;18.87;45.02;101010.31;4996082;28;20172;-72
2021/01/26 00:44:56;;;;;;;2.30;0.80;;;;;;;18.87;45.48;101015.56;5009573;28;20124;-75
2021/01/26 00:47:21;;;;;;;2.17;0.85;;;;;;;18.89;45.37;101015.56;5014675;28;20042;-75
2021/01/26 00:49:47;;;;;;;3.15;1.02;;;;;;;18.88;45.42;101014.69;5018531;28;20041;-75
2021/01/26 00:52:13;;;;;;;1.30;0.80;;;;;;;18.88;45.43;101025.16;5004171;28;20033;-75
2021/01/26 00:54:39;;;;;;;2.55;1.13;;;;;;;18.87;45.19;101025.19;5021757;28;20053;-75
2021/01/26 00:57:05;;;;;;;3.53;1.13;;;;;;;18.86;45.17;101024.31;5021689;28;20033;-75
2021/01/26 00:59:31;;;;;;;2.75;0.90;;;;;;;18.83;45.38;101020.81;5027056;28;20036;-75
2021/01/26 01:01:58;;;;;;;1.63;0.75;;;;;;;18.87;45.18;101041.78;5021086;28;20042;-75
2021/01/26 01:04:23;;;;;;;2.13;1.00;;;;;;;18.83;45.38;101037.41;5020063;28;20084;-75
2021/01/26 01:06:50;;;;;;;2.55;0.90;;;;;;;18.84;45.25;101027.78;5003717;28;20022;-75
2021/01/26 01:09:15;;;;;;;2.75;1.10;;;;;;;18.82;45.31;101054.03;5005524;28;20106;-75
2021/01/26 01:11:41;;;;;;;1.80;0.90;;;;;;;18.82;45.06;101050.53;5024825;28;20468;-75
2021/01/26 01:14:08;;;;;;;1.65;1.25;;;;;;;18.82;45.12;101046.16;4999950;28;20026;-75
2021/01/26 01:16:34;;;;;;;3.20;1.50;;;;;;;18.78;44.89;101044.44;5019179;28;20424;-75
2021/01/26 01:18:59;;;;;;;1.83;0.77;;;;;;;18.80;45.02;101052.28;4993720;28;20037;-75
2021/01/26 01:21:25;;;;;;;2.40;0.98;;;;;;;18.78;44.78;101051.41;5018161;28;20022;-75
2021/01/26 01:23:50;;;;;;;2.42;0.93;;;;;;;18.79;44.90;101066.25;5017403;28;20446;-75
2021/01/26 01:26:16;;;;;;;2.60;1.08;;;;;;;18.79;45.01;101069.75;5030888;28;20088;-75
2021/01/26 01:28:41;;;;;;;4.50;1.00;;;;;;;18.74;44.97;101057.53;5006319;28;20535;-75
2021/01/26 01:31:07;;;;;;;1.85;0.90;;;;;;;18.77;44.85;101075.88;5014020;28;20034;-75
2021/01/26 01:33:32;;;;;;;2.17;1.00;;;;;;;18.71;44.95;101068.88;5005971;28;20044;-75
2021/01/26 01:35:58;;;;;;;3.08;1.20;;;;;;;18.73;44.93;101076.75;4999066;28;20084;-75
2021/01/26 01:38:24;;;;;;;2.58;1.42;;;;;;;18.70;45.02;101068.88;4982974;28;20037;-75
2021/01/26 01:40:52;;;;;;;1.55;0.98;;;;;;;18.71;45.05;101076.75;4998825;28;20032;-75
2021/01/26 01:43:17;;;;;;;2.25;1.00;;;;;;;18.70;44.94;101079.34;5016670;28;20061;-75
2021/01/26 01:45:43;;;;;;;1.40;0.85;;;;;;;18.69;45.13;101072.41;5015185;28;20061;-75
2021/01/26 01:48:18;;;;;;;2.60;1.13;;;;;;;18.69;45.01;101080.25;5018186;28;20025;-75
2021/01/26 01:50:52;;;;;;;2.40;1.15;;;;;;;18.67;45.16;101087.25;5026966;28;20048;-75
2021/01/26 01:53:24;;;;;;;2.78;0.80;;;;;;;18.69;45.13;101086.38;5016901;28;20101;-75
2021/01/26 01:56:18;;;;;;;3.33;0.70;;;;;;;18.63;45.12;101095.97;5019853;28;20464;-75
2021/01/26 01:58:52;;;;;;;1.85;0.90;;;;;;;18.67;45.34;101098.59;5016544;28;20037;-75
2021/01/26 02:01:19;;;;;;;2.38;0.82;;;;;;;18.70;45.11;101114.28;5010714;28;20030;-75
2021/01/26 02:03:53;;;;;;;4.05;0.90;;;;;;;18.69;45.09;101111.69;5029047;28;20042;-75
2021/01/26 02:06:22;;;;;;;1.95;0.80;;;;;;;18.67;45.15;101109.06;5026776;28;20017;-75
2021/01/26 02:08:58;;;;;;;3.55;1.13;;;;;;;18.67;44.77;101113.44;5016128;28;20045;-75
2021/01/26 02:11:24;;;;;;;2.25;0.60;;;;;;;18.68;44.89;101118.69;5014711;28;20077;-75
2021/01/26 02:13:50;;;;;;;7.13;1.10;;;;;;;18.61;44.92;101109.06;5026007;28;20022;-75
2021/01/26 02:16:32;;;;;;;2.63;0.95;;;;;;;18.66;44.94;101115.19;5007613;28;20026;-75
2021/01/26 02:19:32;;;;;;;1.60;0.50;;;;;;;18.66;45.04;101125.66;5023926;28;20025;-75
2021/01/26 02:21:58;;;;;;;2.45;0.95;;;;;;;18.66;45.21;101130.03;5035365;28;20113;-75
2021/01/26 02:24:48;;;;;;;2.03;0.90;;;;;;;18.64;44.75;101132.66;5018345;28;20053;-75
2021/01/26 02:27:50;;;;;;;2.55;0.90;;;;;;;18.64;44.98;101127.41;5021003;28;20071;-75
2021/01/26 02:30:27;;;;;;;5.47;0.82;;;;;;;18.62;44.90;101131.78;5029420;28;20472;-75
2021/01/26 02:33:15;;;;;;;2.78;1.15;;;;;;;18.60;45.05;101133.50;5029681;28;20079;-75
2021/01/26 02:36:19;;;;;;;2.42;0.90;;;;;;;18.60;44.92;101140.50;5027733;28;20045;-75
2021/01/26 02:38:59;;;;;;;2.60;0.80;;;;;;;18.59;45.01;101144.88;5012586;28;20068;-77
2021/01/26 02:41:39;;;;;;;2.60;1.15;;;;;;;18.54;44.98;101136.13;5025144;28;20021;-75
2021/01/26 02:44:16;;;;;;;1.33;0.70;;;;;;;18.58;45.07;101140.50;5034027;28;20079;-75
2021/01/26 02:46:46;;;;;;;1.08;0.55;;;;;;;18.56;44.91;101144.84;5027606;28;20093;-75
2021/01/26 02:49:43;;;;;;;3.75;1.10;;;;;;;18.56;44.95;101152.72;5023894;28;20361;-75
2021/01/26 02:52:14;;;;;;;2.40;0.75;;;;;;;18.55;44.88;101156.19;5013944;28;20070;-75
2021/01/26 02:55:01;;;;;;;2.13;0.82;;;;;;;18.54;45.06;101160.56;5022269;28;20029;-75
2021/01/26 02:57:49;;;;;;;1.77;0.82;;;;;;;18.54;45.01;101170.16;5033296;28;20060;-76
2021/01/26 03:00:22;;;;;;;1.77;0.80;;;;;;;18.54;44.95;101170.16;5024090;28;20499;-75
2021/01/26 03:02:57;;;;;;;2.55;0.88;;;;;;;18.54;44.79;101181.53;5029288;28;20618;-75
2021/01/26 03:05:30;;;;;;;4.22;1.75;;;;;;;18.53;44.80;101178.91;5032876;28;20038;-75
2021/01/26 03:08:04;;;;;;;2.35;0.90;;;;;;;18.51;44.94;101185.88;5026910;28;20021;-75
2021/01/26 03:10:41;;;;;;;;;;;;;;;18.52;44.84;101183.25;5015946;28;20116;-75
2021/01/26 03:13:12;;;;;;;1.20;0.60;;;;;;;18.50;45.05;101187.63;5020824;28;20476;-75
2021/01/26 03:15:51;;;;;;;2.20;0.80;;;;;;;18.50;44.91;101200.72;5014656;28;20084;-75
2021/01/26 03:18:21;;;;;;;3.15;0.93;;;;;;;18.48;44.94;101191.09;5024463;28;20026;-75
2021/01/26 03:20:59;;;;;;;2.25;1.23;;;;;;;18.50;44.97;101205.06;5018019;28;20030;-75
2021/01/26 03:23:49;;;;;;;2.38;1.23;;;;;;;18.46;44.93;101209.44;5015269;28;20105;-75
2021/01/26 03:26:19;;;;;;;2.47;0.82;;;;;;;18.47;44.90;101207.69;5032822;28;20053;-75
2021/01/26 03:28:54;;;;;;;3.10;1.02;;;;;;;18.47;44.87;101212.91;5024789;28;20022;-75
2021/01/26 03:31:25;;;;;;;2.30;0.93;;;;;;;18.48;45.04;101212.06;5031323;28;20559;-75
2021/01/26 03:33:53;;;;;;;1.63;0.75;;;;;;;18.43;44.79;101214.69;5032431;28;20435;-75
2021/01/26 03:36:18;;;;;;;3.53;0.98;;;;;;;18.46;44.81;101214.66;5017469;28;20076;-75
2021/01/26 03:38:45;;;;;;;1.75;0.85;;;;;;;18.42;44.91;101220.78;5017187;28;20030;-75
2021/01/26 03:41:11;;;;;;;1.67;0.90;;;;;;;18.45;44.95;101222.53;5016648;28;20025;-75
2021/01/26 03:43:37;;;;;;;1.55;0.70;;;;;;;18.40;44.99;101219.91;5016078;28;20048;-75
2021/01/26 03:46:22;;;;;;;3.00;0.90;;;;;;;18.44;44.76;101221.66;5015886;28;20029;-75
2021/01/26 03:49:22;;;;;;;2.67;0.90;;;;;;;18.44;44.85;101221.66;5014316;28;20022;-75
2021/01/26 03:52:33;;;;;;;1.77;0.80;;;;;;;18.42;44.90;101228.66;5012988;28;20485;-75
2021/01/26 03:55:29;;;;;;;2.47;0.85;;;;;;;18.43;44.64;101229.53;5012457;28;20026;-75
2021/01/26 03:58:13;;;;;;;2.85;1.40;;;;;;;18.42;44.60;101238.25;5013178;28;20113;-75
2021/01/26 04:00:53;;;;;;;2.33;0.70;;;;;;;18.42;44.88;101241.75;5017994;28;20034;-72
2021/01/26 04:04:00;;;;;;;1.20;0.65;;;;;;;18.41;44.90;101254.84;5021472;28;20069;-72
2021/01/26 04:06:34;;;;;;;3.45;0.90;;;;;;;18.41;44.75;101260.06;4964935;28;20027;-72
2021/01/26 04:09:08;;;;;;;1.13;0.50;;;;;;;18.40;44.78;101260.94;5026109;28;20139;-72
2021/01/26 04:12:00;;;;;;;1.60;0.80;;;;;;;18.36;44.63;101265.28;5014870;28;20026;-72
2021/01/26 04:14:45;;;;;;;2.88;0.68;;;;;;;18.39;44.74;101270.53;5013950;28;20065;-72
2021/01/26 04:17:21;;;;;;;3.05;1.00;;;;;;;18.38;44.86;101266.16;5017733;28;20036;-72
2021/01/26 04:19:57;;;;;;;2.95;1.02;;;;;;;18.38;44.68;101267.91;5019006;28;20068;-72
2021/01/26 04:22:24;;;;;;;1.85;0.60;;;;;;;18.38;44.59;101281.00;5013566;28;20116;-72
2021/01/26 04:24:50;;;;;;;3.55;1.05;;;;;;;18.37;44.60;101276.63;5011316;28;20057;-72
2021/01/26 04:27:19;;;;;;;1.35;1.00;;;;;;;18.38;44.80;101275.75;5013689;28;20112;-72
2021/01/26 04:29:44;;;;;;;2.10;0.85;;;;;;;18.33;44.77;101275.75;5015644;28;20387;-72
2021/01/26 04:32:10;;;;;;;1.80;0.90;;;;;;;18.36;44.70;101290.59;5016950;28;20022;-72
2021/01/26 04:34:36;;;;;;;2.53;1.15;;;;;;;18.31;44.66;101284.44;5010759;28;20168;-73
2021/01/26 04:37:02;;;;;;;1.17;0.85;;;;;;;18.33;44.69;101287.94;5012772;28;20064;-72
2021/01/26 04:39:27;;;;;;;1.42;0.75;;;;;;;18.35;44.86;101301.94;5022887;28;20057;-72
2021/01/26 04:42:00;;;;;;;1.80;0.82;;;;;;;18.33;44.56;101295.81;5025509;28;20041;-72
2021/01/26 04:44:43;;;;;;;3.50;0.90;;;;;;;18.29;44.92;101309.78;5017642;28;20025;-72
2021/01/26 04:47:30;;;;;;;4.95;1.08;;;;;;;18.33;44.76;101311.50;5018321;28;20538;-72
2021/01/26 04:50:05;;;;;;;1.08;0.63;;;;;;;18.32;44.84;101323.72;5033272;28;20108;-72
2021/01/26 04:53:08;;;;;;;2.90;0.70;;;;;;;18.31;44.86;101326.34;5014444;28;20479;-72
2021/01/26 04:55:58;;;;;;;1.80;1.05;;;;;;;18.30;44.86;101325.50;4985000;28;20038;-75
2021/01/26 04:58:42;;;;;;;1.50;0.70;;;;;;;18.31;44.94;101329.84;5017648;28;20703;-75
2021/01/26 05:01:28;;;;;;;2.72;1.05;;;;;;;18.30;45.08;101328.13;5017633;28;20017;-75
2021/01/26 05:04:03;;;;;;;2.53;1.00;;;;;;;18.26;44.56;101325.47;4981014;28;20084;-74
2021/01/26 05:06:35;;;;;;;3.47;0.90;;;;;;;18.21;45.00;101330.69;5015329;28;20925;-75
2021/01/26 05:09:05;;;;;;;2.65;1.33;;;;;;;18.27;44.67;101338.56;5017097;28;20033;-72
2021/01/26 05:11:34;;;;;;;1.80;0.93;;;;;;;18.26;44.64;101341.19;5027123;28;20099;-75
2021/01/26 05:14:14;;;;;;;1.27;0.77;;;;;;;18.27;44.92;101345.56;5020981;28;20057;-75
2021/01/26 05:16:50;;;;;;;1.00;0.68;;;;;;;18.25;44.60;101352.53;5016526;28;20429;-75
2021/01/26 05:19:22;;;;;;;2.03;0.95;;;;;;;18.26;44.71;101357.75;5013213;28;20480;-75
2021/01/26 05:22:06;;;;;;;3.08;0.90;;;;;;;18.24;44.67;101356.88;5023891;28;20037;-74
2021/01/26 05:25:12;;;;;;;2.08;1.20;;;;;;;18.26;44.68;101362.13;5011620;28;20026;-75
2021/01/26 05:27:38;;;;;;;3.58;1.08;;;;;;;18.25;44.74;101363.00;5004047;28;20505;-75
2021/01/26 05:30:08;;;;;;;2.38;0.90;;;;;;;18.26;44.74;101364.75;5032550;28;20029;-75
2021/01/26 05:32:35;;;;;;;1.80;0.50;;;;;;;18.24;44.88;101376.94;5017203;28;20365;-75
2021/01/26 05:35:00;;;;;;;1.55;0.70;;;;;;;18.23;44.79;101370.84;5020447;28;20033;-74
2021/01/26 05:37:27;;;;;;;2.50;0.80;;;;;;;18.19;44.79;101374.28;5032072;28;20709;-75
2021/01/26 05:40:07;;;;;;;2.30;0.70;;;;;;;18.23;44.66;101383.03;5011213;28;20037;-74
2021/01/26 05:42:36;;;;;;;0.95;0.60;;;;;;;18.21;44.89;101390.88;5015643;28;20018;-74
2021/01/26 05:45:17;;;;;;;4.55;1.55;;;;;;;18.19;45.05;101384.75;5015224;28;20484;-75
2021/01/26 05:47:44;;;;;;;2.28;0.80;;;;;;;18.21;44.68;101397.00;5015962;28;20056;-74
2021/01/26 05:50:36;;;;;;;1.42;0.70;;;;;;;18.20;44.74;101391.75;5009396;28;20491;-74
2021/01/26 05:53:13;;;;;;;1.27;0.68;;;;;;;18.15;44.74;101386.50;5020606;28;20042;-74
2021/01/26 05:55:39;;;;;;;0.95;0.60;;;;;;;18.20;44.63;101397.88;4998405;28;20033;-75
2021/01/26 05:58:07;;;;;;;1.38;0.75;;;;;;;18.18;44.89;101396.97;4986404;28;20022;-74
2021/01/26 06:00:34;;;;;;;0.63;0.38;;;;;;;18.18;44.66;101407.44;5022311;28;20025;-75
2021/01/26 06:03:19;;;;;;;0.85;0.52;;;;;;;18.18;44.80;101401.34;5013582;28;20516;-72
2021/01/26 06:06:08;;;;;;;1.95;0.80;;;;;;;18.16;44.54;101403.09;5028167;28;20041;-72
2021/01/26 06:08:54;;;;;;;1.67;0.60;;;;;;;18.17;44.65;101410.09;5007374;28;20379;-72
2021/01/26 06:11:28;;;;;;;1.42;0.73;;;;;;;18.15;44.57;101423.16;5016201;28;20029;-72
2021/01/26 06:14:08;;;;;;;4.57;1.13;;;;;;;18.13;44.88;101424.88;5025741;28;20020;-72
2021/01/26 06:16:33;;;;;;;2.40;1.00;;;;;;;18.15;44.68;101428.41;5030938;28;20021;-72
2021/01/26 06:19:02;;;;;;;2.15;0.80;;;;;;;18.10;44.80;101419.63;5012938;28;20029;-72
2021/01/26 06:21:46;;;;;;;1.67;0.60;;;;;;;18.14;44.75;101423.16;5021350;28;20421;-72
2021/01/26 06:24:18;;;;;;;1.10;0.60;;;;;;;18.12;44.47;101433.59;5020243;28;20033;-73
2021/01/26 06:27:01;;;;;;;3.17;0.80;;;;;;;18.16;44.26;101434.50;5022198;28;20029;-72
2021/01/26 06:29:53;;;;;;;8.27;1.27;;;;;;;18.21;44.56;101438.00;5028300;28;20183;-76
2021/01/26 06:33:02;;;;;;;4.15;1.20;;;;;;;18.27;44.48;101445.03;5016320;28;20026;-77
2021/01/26 06:35:37;;;;;;;4.13;1.52;;;;;;;18.37;44.22;101444.22;4968328;28;20073;-75
2021/01/26 06:38:24;;;;;;;3.72;1.67;;;;;;;18.43;44.06;101446.88;5027735;28;20030;-75
2021/01/26 06:41:19;;;;;;;2.60;1.27;;;;;;;18.46;44.56;101445.13;5019951;28;20026;-75
2021/01/26 06:44:11;;;;;;;5.75;1.70;;;;;;;18.51;44.67;101451.28;5020490;28;20030;-78
2021/01/26 06:46:50;;;;;;;4.88;1.80;;;;;;;18.59;44.64;101453.06;5024419;28;20502;-72
2021/01/26 06:49:21;;;;;;;4.95;1.60;;;;;;;18.59;44.79;101466.16;5021813;28;20116;-72
2021/01/26 06:52:18;;;;;;;5.22;1.88;;;;;;;18.57;44.64;101476.59;5022464;28;20037;-72
2021/01/26 06:55:08;;;;;;;4.40;2.15;;;;;;;18.64;44.76;101481.03;5015709;28;20067;-73
2021/01/26 06:58:04;;;;;;;4.72;2.10;;;;;;;18.63;44.96;101487.16;5013423;28;20064;-73
2021/01/26 07:00:47;;;;;;;2.88;1.30;;;;;;;18.59;45.09;101482.75;5030940;28;20029;-73
2021/01/26 07:03:31;;;;;;;4.85;1.98;;;;;;;18.68;44.54;101498.53;5023496;28;20092;-73
2021/01/26 07:06:03;;;;;;;5.72;2.20;;;;;;;18.73;44.75;101501.16;5019516;28;20033;-74
2021/01/26 07:08:31;;;;;;;4.28;2.03;;;;;;;18.68;44.89;101509.03;5018544;28;20034;-74
2021/01/26 07:11:17;;;;;;;4.18;1.67;;;;;;;18.70;44.73;101509.88;5019762;28;20025;-75
2021/01/26 07:13:57;;;;;;;4.10;2.30;;;;;;;18.75;44.64;101510.78;5014120;28;20025;-74
2021/01/26 07:17:02;;;;;;;4.80;1.85;;;;;;;18.73;44.68;101523.00;5017196;28;20653;-73
2021/01/26 07:19:45;;;;;;;4.50;1.95;;;;;;;18.69;45.07;101530.84;5032948;28;20033;-74
2021/01/26 07:22:42;;;;;;;4.00;1.52;;;;;;;18.73;44.54;101533.47;5028473;28;20055;-73
2021/01/26 07:25:22;;;;;;;3.95;1.67;;;;;;;18.68;44.75;101536.97;5027169;28;20036;-73
2021/01/26 07:28:17;;;;;;;6.32;2.58;;;;;;;18.70;44.76;101540.44;5015502;28;20075;-73
2021/01/26 07:30:46;;;;;;;4.97;1.33;;;;;;;18.74;44.48;101552.69;5026249;28;20030;-73
2021/01/26 07:33:14;;;;;;;4.68;1.95;;;;;;;18.74;44.68;101556.19;5020448;28;20071;-77
2021/01/26 07:36:00;;;;;;;3.40;1.70;;;;;;;18.75;44.86;101565.81;5023857;28;20030;-77
2021/01/26 07:38:39;;;;;;;5.00;1.55;;;;;;;18.81;44.67;101567.59;5039743;28;20126;-72
2021/01/26 07:41:11;;;;;;;2.88;1.67;;;;;;;18.81;44.67;101570.22;5014596;28;20168;-72
2021/01/26 07:44:01;;;;;;;4.70;1.45;;;;;;;18.77;44.85;101577.19;5013527;28;20547;-78
2021/01/26 07:46:37;;;;;;;2.45;1.35;;;;;;;18.83;44.63;101573.69;5020162;28;20030;-76
2021/01/26 07:49:14;;;;;;;3.38;1.65;;;;;;;18.86;44.40;101571.09;5014832;28;20388;-77
2021/01/26 07:51:42;;;;;;;2.97;1.60;;;;;;;18.77;44.69;101571.94;5014027;28;20392;-77
2021/01/26 07:54:19;;;;;;;3.60;1.67;;;;;;;18.81;44.64;101586.81;5022898;28;20025;-78
2021/01/26 07:56:46;;;;;;;3.95;1.40;;;;;;;18.86;44.70;101594.69;5018950;28;20029;-77
2021/01/26 07:59:21;;;;;;;3.83;1.70;;;;;;;18.81;44.54;101589.44;5024204;28;20089;-72
2021/01/26 08:01:55;;;;;;;3.85;1.98;;;;;;;18.80;44.67;101594.66;5017548;28;20469;-72
2021/01/26 08:04:22;;;;;;;;;;;;;;;18.77;44.60;101599.88;5021098;28;20037;-72
2021/01/26 08:06:57;;;;;;;4.38;1.42;;;;;;;18.73;44.70;101598.97;5014739;28;19917;-78
2021/01/26 08:09:33;;;;;;;2.20;1.02;;;;;;;18.68;45.03;101603.34;5025014;28;20546;-77
2021/01/26 08:12:08;;;;;;;2.25;1.05;;;;;;;18.65;44.88;101600.69;5024677;28;20030;-72
2021/01/26 08:14:38;;;;;;;4.20;1.48;;;;;;;18.65;44.90;101608.53;5022789;28;20059;-71
2021/01/26 08:17:11;;;;;;;3.20;1.13;;;;;;;18.64;45.17;101608.53;5020151;28;20072;-78
2021/01/26 08:19:42;;;;;;;2.97;1.27;;;;;;;18.62;44.86;101600.66;5017228;28;20052;-78
2021/01/26 08:22:21;;;;;;;3.03;1.27;;;;;;;18.63;44.99;101610.28;5017345;28;20122;-78
2021/01/26 08:24:58;;;;;;;3.75;1.52;;;;;;;18.73;44.78;101613.81;5015560;28;20026;-77
2021/01/26 08:27:49;;;;;;;2.22;1.13;;;;;;;18.84;44.55;101615.63;5013114;28;20460;-71
2021/01/26 08:30:52;;;;;;;3.22;1.42;;;;;;;18.83;44.35;101619.13;5022551;28;20539;-71
2021/01/26 08:33:19;;;;;;;3.97;1.02;;;;;;;18.85;44.41;101637.47;5020195;28;20022;-71
2021/01/26 08:35:47;;;;;;;2.65;1.10;;;;;;;18.92;44.45;101636.66;5026138;28;20033;-71
2021/01/26 08:38:47;;;;;;;4.65;1.30;;;;;;;19.03;44.16;101639.34;5013254;28;20046;-71
2021/01/26 08:41:33;;;;;;;2.45;1.13;;;;;;;18.98;44.31;101638.44;5015388;28;20025;-71
2021/01/26 08:43:58;;;;;;;3.05;1.50;;;;;;;18.99;44.14;101640.19;5021806;28;20021;-71
2021/01/26 08:46:37;;;;;;;3.92;1.30;;;;;;;19.05;44.05;101642.84;5024672;28;20419;-71
2021/01/26 08:49:30;;;;;;;2.92;0.93;;;;;;;18.97;44.06;101642.78;5023448;28;20065;-77
2021/01/26 08:52:21;;;;;;;3.63;1.48;;;;;;;19.01;44.37;101655.06;5014724;28;20480;-77
2021/01/26 08:54:49;;;;;;;2.42;1.38;;;;;;;19.06;44.15;101666.47;5024177;28;20380;-71
2021/01/26 08:57:27;;;;;;;2.30;1.30;;;;;;;19.03;44.22;101669.06;5026466;28;20025;-71
2021/01/26 08:59:54;;;;;;;4.43;2.00;;;;;;;19.02;44.31;101672.53;5020656;28;20026;-78
2021/01/26 09:02:41;;;;;;;1.20;0.73;;;;;;;19.07;44.09;101672.56;5019146;28;20120;-77
2021/01/26 09:05:08;;;;;;;2.55;1.02;;;;;;;19.09;44.02;101687.41;5022063;28;20495;-77
2021/01/26 09:07:48;;;;;;;2.53;1.30;;;;;;;19.06;44.07;101684.81;5025278;28;20041;-78
2021/01/26 09:10:23;;;;;;;1.98;1.27;;;;;;;19.12;44.00;101695.31;5026290;28;20030;-71
2021/01/26 09:13:02;;;;;;;2.97;1.00;;;;;;;19.11;43.94;101695.31;5022441;28;20036;-72
2021/01/26 09:15:28;;;;;;;2.08;0.82;;;;;;;19.06;44.09;101691.78;5033967;28;20030;-72
2021/01/26 09:17:58;;;;;;;2.83;1.13;;;;;;;19.16;43.94;101697.09;5021290;28;20081;-71
2021/01/26 09:20:29;;;;;;;1.85;0.95;;;;;;;19.14;43.91;101698.81;5030675;28;20057;-71
2021/01/26 09:23:01;;;;;;;0.93;0.68;;;;;;;19.12;43.94;101702.31;5025446;28;20495;-71
2021/01/26 09:25:33;;;;;;;2.97;1.10;;;;;;;19.11;43.92;101690.94;5021567;28;20034;-71
2021/01/26 09:28:11;;;;;;;2.38;1.05;;;;;;;19.22;43.93;101701.47;5026758;28;20033;-71
2021/01/26 09:30:39;;;;;;;1.40;0.73;;;;;;;19.17;44.15;101708.47;5025582;28;20029;-71
2021/01/26 09:33:18;;;;;;;1.15;0.63;;;;;;;19.19;44.05;101718.09;5027406;28;20022;-71
2021/01/26 09:36:05;;;;;;;2.30;0.85;;;;;;;19.21;43.94;101718.13;5017453;28;20030;-71
2021/01/26 09:38:41;;;;;;;2.97;0.95;;;;;;;19.16;43.89;101725.94;5032154;28;20037;-71
2021/01/26 09:41:16;;;;;;;1.70;0.88;;;;;;;19.16;44.12;101722.44;5016735;28;20108;-71
2021/01/26 09:43:47;;;;;;;2.70;0.95;;;;;;;19.19;44.02;101714.59;5019165;28;20029;-71
2021/01/26 09:46:28;;;;;;;3.42;0.98;;;;;;;19.20;43.68;101726.84;5021637;28;20396;-71
2021/01/26 09:48:56;;;;;;;1.13;0.63;;;;;;;19.19;44.07;101730.34;5024828;28;20021;-71
2021/01/26 09:51:23;;;;;;;1.35;0.70;;;;;;;19.19;43.90;101715.47;5023117;28;20037;-70
2021/01/26 09:53:59;;;;;;;4.63;1.02;;;;;;;19.27;43.84;101726.00;5022688;28;20379;-77
2021/01/26 09:56:25;;;;;;;2.83;0.93;;;;;;;19.31;43.94;101726.91;5025480;28;20025;-71
2021/01/26 09:58:52;;;;;;;2.75;0.63;;;;;;;19.27;43.85;101720.75;5020599;28;20040;-71
2021/01/26 10:01:18;;;;;;;1.52;0.82;;;;;;;19.28;43.72;101730.38;5016940;28;20034;-71
2021/01/26 10:03:44;;;;;;;3.13;0.80;;;;;;;19.32;43.87;101734.78;5029153;28;20050;-71
2021/01/26 10:06:11;;;;;;;2.05;0.60;;;;;;;19.34;43.80;101735.66;4999816;28;20033;-69
2021/01/26 10:08:38;;;;;;;2.05;1.30;;;;;;;19.32;43.97;101744.41;5013882;28;20052;-70
2021/01/26 10:11:18;;;;;;;2.22;1.45;;;;;;;19.31;43.96;101738.28;5020129;28;20025;-71
2021/01/26 10:13:45;;;;;;;1.60;0.50;;;;;;;19.37;43.79;101740.91;5019911;28;20021;-71
2021/01/26 10:16:31;;;;;;;2.05;0.90;;;;;;;19.35;43.82;101736.53;5019102;28;20484;-78
2021/01/26 10:18:58;;;;;;;1.30;1.02;;;;;;;19.36;43.86;101741.78;5020853;28;20112;-77
2021/01/26 10:21:31;;;;;;;2.03;0.98;;;;;;;19.41;43.89;101739.19;5028094;28;20116;-77
2021/01/26 10:24:06;;;;;;;1.65;0.90;;;;;;;19.41;43.67;101745.31;5013025;28;21954;-71
2021/01/26 10:26:35;;;;;;;2.10;0.70;;;;;;;19.38;43.86;101744.41;5021690;28;20033;-71
2021/01/26 10:29:12;;;;;;;1.00;0.70;;;;;;;19.45;43.93;101743.59;5021828;28;20046;-72
2021/01/26 10:31:45;;;;;;;1.95;0.75;;;;;;;19.42;43.84;101751.44;5016380;28;20083;-71
2021/01/26 10:34:35;;;;;;;2.10;1.20;;;;;;;19.37;44.02;101747.91;5019658;28;20068;-73
2021/01/26 10:37:28;;;;;;;2.50;0.68;;;;;;;19.39;44.12;101751.41;5020733;28;20021;-71
2021/01/26 10:40:05;;;;;;;1.75;0.60;;;;;;;19.45;44.00;101754.09;5032074;28;20104;-71
2021/01/26 10:42:31;;;;;;;2.28;0.47;;;;;;;19.48;43.71;101760.19;5020746;28;20390;-71
2021/01/26 10:44:57;;;;;;;3.95;0.82;;;;;;;19.41;44.07;101753.19;5009596;28;20037;-71
2021/01/26 10:47:29;;;;;;;1.23;0.55;;;;;;;19.38;43.93;101757.53;5018254;28;20476;-71
2021/01/26 10:49:58;;;;;;;1.83;0.65;;;;;;;19.44;43.87;101754.94;5014841;28;20080;-72
2021/01/26 10:52:35;;;;;;;1.80;0.80;;;;;;;19.41;43.97;101753.19;5020452;28;20384;-71
2021/01/26 10:55:01;;;;;;;1.15;0.52;;;;;;;19.37;43.86;101767.13;5017278;28;20025;-71
2021/01/26 10:57:27;;;;;;;0.82;0.45;;;;;;;19.36;44.01;101769.75;5021398;28;20113;-71
2021/01/26 10:59:52;;;;;;;1.35;0.70;;;;;;;19.38;43.86;101768.91;5001987;28;20198;-71
2021/01/26 11:02:18;;;;;;;0.85;0.60;;;;;;;19.36;43.90;101775.00;5018479;28;20053;-71
2021/01/26 11:04:43;;;;;;;0.82;0.40;;;;;;;19.33;44.01;101756.63;5017542;28;20054;-71
2021/01/26 11:07:09;;;;;;;1.52;0.50;;;;;;;19.36;43.86;101756.63;5012576;28;20563;-71
2021/01/26 11:09:34;;;;;;;0.77;0.60;;;;;;;19.35;43.86;101753.13;5004934;28;20099;-72
2021/01/26 11:11:59;;;;;;;1.08;0.82;;;;;;;19.36;44.09;101757.50;5004329;28;20065;-78
2021/01/26 11:14:24;;;;;;;1.55;0.50;;;;;;;19.41;43.89;101744.44;5029221;28;20053;-77
2021/01/26 11:16:50;;;;;;;0.82;0.50;;;;;;;19.40;43.83;101747.94;5003279;28;20070;-76
2021/01/26 11:19:16;;;;;;;1.58;0.85;;;;;;;19.40;43.87;101748.81;5017751;28;20038;-80
2021/01/26 11:21:43;;;;;;;2.15;0.57;;;;;;;19.48;43.86;101744.47;5012943;28;20029;-77
2021/01/26 11:24:10;;;;;;;1.52;0.82;;;;;;;19.47;43.80;101745.38;5010163;28;20049;-77
2021/01/26 11:26:35;;;;;;;2.65;0.50;;;;;;;19.47;43.97;101741.88;5011422;28;20038;-77
2021/01/26 11:29:02;;;;;;;0.98;0.68;;;;;;;19.49;43.99;101735.75;4992993;28;20083;-78
2021/01/26 11:31:28;;;;;;;2.03;0.80;;;;;;;19.56;43.64;101742.81;5010628;28;20067;-77
2021/01/26 11:33:53;;;;;;;1.40;0.65;;;;;;;19.47;43.99;101732.25;5004556;28;20109;-77
2021/01/26 11:36:18;;;;;;;1.45;0.63;;;;;;;19.53;44.07;101744.53;5009827;28;20088;-78
2021/01/26 11:38:44;;;;;;;1.50;0.65;;;;;;;19.52;44.13;101734.91;5012571;28;20487;-76
2021/01/26 11:41:09;;;;;;;0.85;0.60;;;;;;;19.51;44.15;101731.41;5021030;28;20037;-77
2021/01/26 11:43:35;;;;;;;1.48;0.82;;;;;;;19.48;44.10;101728.72;5004218;28;20038;-74
2021/01/26 11:46:02;;;;;;;0.95;0.52;;;;;;;19.75;44.06;101748.13;5028636;28;20073;-77
2021/01/26 11:48:29;;;;;;;1.70;1.05;;;;;;;19.77;44.11;101749.00;5014197;28;20116;-72
2021/01/26 11:50:54;;;;;;;1.48;1.00;;;;;;;19.71;44.39;101746.38;5015331;28;20025;-71
2021/01/26 11:53:24;;;;;;;1.92;1.35;;;;;;;19.74;44.82;101743.75;5012331;28;20037;-72
2021/01/26 11:55:52;;;;;;;1.92;1.10;;;;;;;19.73;45.08;101742.00;5006163;28;20053;-71
2021/01/26 11:58:20;;;;;;;3.78;1.48;;;;;;;19.76;44.79;101742.00;5002136;28;20057;-71
2021/01/26 12:00:46;;;;;;;2.08;1.58;;;;;;;19.77;44.88;101744.63;4986721;28;20041;-71